createdAt,value
2023-09-24T00:00:30.702Z,83
2023-09-24T00:01:35.797Z,83
2023-09-24T00:02:40.824Z,84
2023-09-24T00:03:45.906Z,84
2023-09-24T00:04:51.536Z,84
2023-09-24T00:05:56.694Z,84
2023-09-24T00:07:01.697Z,84
2023-09-24T00:08:06.635Z,84
2023-09-24T00:09:11.437Z,84
2023-09-24T00:10:17.692Z,84
2023-09-24T00:11:22.617Z,84
2023-09-24T00:12:27.768Z,84
2023-09-24T00:13:32.792Z,84
2023-09-24T00:14:37.758Z,84
2023-09-24T00:15:42.762Z,84
2023-09-24T00:16:47.622Z,84
2023-09-24T00:17:52.715Z,84
2023-09-24T00:18:57.560Z,84
2023-09-24T00:20:02.466Z,84
2023-09-24T00:21:07.829Z,84
2023-09-24T00:22:12.558Z,84
2023-09-24T00:23:17.471Z,84
2023-09-24T00:24:22.482Z,84
2023-09-24T00:25:27.324Z,84
2023-09-24T00:26:32.228Z,84
2023-09-24T00:27:37.154Z,83
2023-09-24T00:28:42.183Z,83
2023-09-24T00:29:47.203Z,84
2023-09-24T00:30:52.077Z,83
2023-09-24T00:31:56.966Z,84
2023-09-24T00:33:01.935Z,84
2023-09-24T00:34:06.990Z,84
2023-09-24T00:35:14.201Z,84
2023-09-24T00:36:20.217Z,84
2023-09-24T00:37:26.370Z,84
2023-09-24T00:38:31.424Z,84
2023-09-24T00:39:37.349Z,84
2023-09-24T00:40:42.286Z,84
2023-09-24T00:41:47.278Z,84
2023-09-24T00:42:52.166Z,84
2023-09-24T00:43:57.169Z,84
2023-09-24T00:45:04.696Z,83
2023-09-24T00:46:10.043Z,83
2023-09-24T00:47:14.879Z,83
2023-09-24T00:48:20.079Z,83
2023-09-24T00:49:24.856Z,83
2023-09-24T00:50:29.794Z,83
2023-09-24T00:51:34.846Z,83
2023-09-24T00:52:39.885Z,83
2023-09-24T00:53:44.857Z,83
2023-09-24T00:54:49.722Z,83
2023-09-24T00:55:54.625Z,83
2023-09-24T00:56:59.592Z,83
2023-09-24T00:58:04.544Z,83
2023-09-24T00:59:10.511Z,83
2023-09-24T01:00:15.406Z,83
2023-09-24T01:01:20.495Z,83
2023-09-24T01:02:28.620Z,83
2023-09-24T01:03:33.733Z,83
2023-09-24T01:04:38.424Z,83
2023-09-24T01:05:43.488Z,83
2023-09-24T01:06:48.258Z,83
2023-09-24T01:07:53.213Z,83
2023-09-24T01:08:58.288Z,83
2023-09-24T01:10:03.198Z,83
2023-09-24T01:11:08.263Z,84
2023-09-24T01:12:13.210Z,84
2023-09-24T01:13:25.647Z,84
2023-09-24T01:14:30.698Z,84
2023-09-24T01:15:36.748Z,83
2023-09-24T01:16:44.701Z,83
2023-09-24T01:17:49.646Z,83
2023-09-24T01:18:54.749Z,84
2023-09-24T01:19:59.547Z,84
2023-09-24T01:21:04.466Z,84
2023-09-24T01:22:18.558Z,84
2023-09-24T01:23:23.622Z,84
2023-09-24T01:24:28.658Z,84
2023-09-24T01:25:35.939Z,84
2023-09-24T01:26:41.017Z,84
2023-09-24T01:27:45.984Z,84
2023-09-24T01:28:51.089Z,84
2023-09-24T01:29:58.807Z,84
2023-09-24T01:31:03.857Z,84
2023-09-24T01:32:08.986Z,83
2023-09-24T01:33:14.135Z,83
2023-09-24T01:34:19.030Z,83
2023-09-24T01:35:23.905Z,83
2023-09-24T01:36:28.912Z,82
2023-09-24T01:37:33.867Z,82
2023-09-24T01:38:38.722Z,82
2023-09-24T01:39:46.371Z,82
2023-09-24T01:40:52.559Z,82
2023-09-24T01:41:57.755Z,82
2023-09-24T01:43:02.682Z,82
2023-09-24T01:44:07.596Z,82
2023-09-24T01:45:12.587Z,82
2023-09-24T01:46:17.610Z,82
2023-09-24T01:47:22.599Z,82
2023-09-24T01:48:27.565Z,82
2023-09-24T01:49:32.363Z,82
2023-09-24T01:50:37.354Z,82
2023-09-24T01:51:42.347Z,82
2023-09-24T01:52:47.312Z,82
2023-09-24T01:53:52.205Z,83
2023-09-24T01:54:57.484Z,83
2023-09-24T01:56:02.546Z,83
2023-09-24T01:57:07.500Z,83
2023-09-24T01:58:12.389Z,83
2023-09-24T01:59:17.345Z,83
2023-09-24T02:00:22.302Z,83
2023-09-24T02:01:30.271Z,83
2023-09-24T02:02:35.414Z,83
2023-09-24T02:03:40.360Z,83
2023-09-24T02:04:45.155Z,83
2023-09-24T02:05:50.322Z,83
2023-09-24T02:06:55.287Z,83
2023-09-24T02:08:00.152Z,83
2023-09-24T02:09:05.077Z,83
2023-09-24T02:10:09.959Z,83
2023-09-24T02:11:14.940Z,83
2023-09-24T02:12:19.921Z,83
2023-09-24T02:13:24.833Z,83
2023-09-24T02:14:29.882Z,83
2023-09-24T02:15:35.045Z,83
2023-09-24T02:16:39.878Z,83
2023-09-24T02:17:44.912Z,83
2023-09-24T02:18:50.008Z,83
2023-09-24T02:19:54.837Z,83
2023-09-24T02:21:02.511Z,83
2023-09-24T02:22:07.359Z,83
2023-09-24T02:23:12.403Z,83
2023-09-24T02:24:17.376Z,83
2023-09-24T02:25:22.298Z,82
2023-09-24T02:26:27.373Z,83
2023-09-24T02:27:32.323Z,83
2023-09-24T02:28:37.237Z,82
2023-09-24T02:29:44.911Z,83
2023-09-24T02:30:50.003Z,83
2023-09-24T02:31:54.685Z,83
2023-09-24T02:32:59.754Z,83
2023-09-24T02:34:04.833Z,83
2023-09-24T02:35:09.826Z,83
2023-09-24T02:36:17.722Z,83
2023-09-24T02:37:22.745Z,83
2023-09-24T02:38:27.701Z,83
2023-09-24T02:39:32.586Z,83
2023-09-24T02:40:37.539Z,83
2023-09-24T02:41:42.472Z,83
2023-09-24T02:42:47.602Z,83
2023-09-24T02:43:52.544Z,83
2023-09-24T02:44:57.658Z,83
2023-09-24T02:46:02.594Z,83
2023-09-24T02:47:07.526Z,83
2023-09-24T02:48:15.004Z,83
2023-09-24T02:49:19.996Z,83
2023-09-24T02:50:25.239Z,83
2023-09-24T02:51:29.893Z,83
2023-09-24T02:52:34.913Z,83
2023-09-24T02:53:40.727Z,83
2023-09-24T02:54:45.925Z,83
2023-09-24T02:55:50.940Z,83
2023-09-24T02:56:55.903Z,84
2023-09-24T02:58:00.920Z,83
2023-09-24T02:59:05.860Z,84
2023-09-24T03:00:10.963Z,84
2023-09-24T03:01:21.041Z,84
2023-09-24T03:02:26.127Z,84
2023-09-24T03:03:31.246Z,84
2023-09-24T03:04:36.330Z,84
2023-09-24T03:05:41.504Z,84
2023-09-24T03:06:46.368Z,85
2023-09-24T03:07:52.163Z,85
2023-09-24T03:08:56.258Z,85
2023-09-24T03:10:02.320Z,85
2023-09-24T03:11:07.548Z,84
2023-09-24T03:12:17.423Z,84
2023-09-24T03:13:22.432Z,84
2023-09-24T03:14:27.341Z,84
2023-09-24T03:15:32.249Z,84
2023-09-24T03:16:37.333Z,84
2023-09-24T03:17:42.302Z,83
2023-09-24T03:18:47.312Z,83
2023-09-24T03:19:53.962Z,83
2023-09-24T03:21:00.453Z,83
2023-09-24T03:22:05.320Z,83
2023-09-24T03:23:10.689Z,83
2023-09-24T03:24:15.298Z,82
2023-09-24T03:25:20.307Z,82
2023-09-24T03:26:25.354Z,82
2023-09-24T03:27:30.197Z,82
2023-09-24T03:28:35.072Z,82
2023-09-24T03:29:40.224Z,81
2023-09-24T03:30:45.243Z,81
2023-09-24T03:31:50.270Z,81
2023-09-24T03:32:55.283Z,81
2023-09-24T03:34:00.079Z,81
2023-09-24T03:35:05.081Z,81
2023-09-24T03:36:11.064Z,81
2023-09-24T03:37:16.069Z,81
2023-09-24T03:38:20.916Z,81
2023-09-24T03:39:29.825Z,81
2023-09-24T03:40:34.690Z,81
2023-09-24T03:41:39.644Z,81
2023-09-24T03:42:44.603Z,80
2023-09-24T03:43:49.738Z,80
2023-09-24T03:44:54.578Z,81
2023-09-24T03:45:59.449Z,81
2023-09-24T03:47:04.361Z,81
2023-09-24T03:48:09.348Z,80
2023-09-24T03:49:14.249Z,80
2023-09-24T03:50:19.171Z,80
2023-09-24T03:51:24.164Z,80
2023-09-24T03:52:29.375Z,81
2023-09-24T03:53:34.179Z,81
2023-09-24T03:54:39.092Z,81
2023-09-24T03:55:44.029Z,81
2023-09-24T03:56:48.964Z,81
2023-09-24T03:57:53.982Z,81
2023-09-24T03:58:58.879Z,81
2023-09-24T04:00:03.845Z,81
2023-09-24T04:01:13.958Z,81
2023-09-24T04:02:18.805Z,81
2023-09-24T04:03:24.106Z,81
2023-09-24T04:04:29.005Z,81
2023-09-24T04:05:33.956Z,81
2023-09-24T04:06:38.851Z,81
2023-09-24T04:07:43.814Z,81
2023-09-24T04:08:48.912Z,81
2023-09-24T04:09:54.721Z,82
2023-09-24T04:11:49.163Z,82
2023-09-24T04:12:53.923Z,81
2023-09-24T04:13:58.585Z,81
2023-09-24T04:15:03.472Z,81
2023-09-24T04:16:08.375Z,81
2023-09-24T04:17:13.057Z,81
2023-09-24T04:18:17.939Z,81
2023-09-24T04:19:23.301Z,81
2023-09-24T04:20:31.381Z,81
2023-09-24T04:21:38.848Z,81
2023-09-24T04:22:43.655Z,81
2023-09-24T04:23:48.714Z,81
2023-09-24T04:24:53.034Z,81
2023-09-24T04:25:57.690Z,81
2023-09-24T04:27:02.487Z,81
2023-09-24T04:28:07.300Z,81
2023-09-24T04:29:12.012Z,81
2023-09-24T04:30:16.820Z,82
2023-09-24T04:31:21.537Z,82
2023-09-24T04:32:26.379Z,82
2023-09-24T04:33:31.187Z,82
2023-09-24T04:34:36.065Z,82
2023-09-24T04:35:40.789Z,82
2023-09-24T04:36:45.878Z,82
2023-09-24T04:37:50.989Z,81
2023-09-24T04:38:55.933Z,81
2023-09-24T04:40:00.672Z,81
2023-09-24T04:41:05.667Z,81
2023-09-24T04:42:10.796Z,82
2023-09-24T04:43:15.710Z,82
2023-09-24T04:44:20.853Z,82
2023-09-24T04:45:25.809Z,82
2023-09-24T04:46:30.903Z,82
2023-09-24T04:47:36.089Z,82
2023-09-24T04:48:43.943Z,82
2023-09-24T04:49:48.775Z,82
2023-09-24T04:50:53.666Z,82
2023-09-24T04:52:01.447Z,82
2023-09-24T04:53:06.406Z,82
2023-09-24T04:54:12.190Z,82
2023-09-24T04:55:17.079Z,82
2023-09-24T04:56:22.299Z,82
2023-09-24T04:57:27.277Z,82
2023-09-24T04:58:32.266Z,81
2023-09-24T04:59:37.198Z,81
2023-09-24T05:00:42.089Z,81
2023-09-24T05:01:47.045Z,81
2023-09-24T05:02:52.243Z,81
2023-09-24T05:03:57.372Z,81
2023-09-24T05:05:02.218Z,81
2023-09-24T05:06:07.308Z,81
2023-09-24T05:07:12.223Z,81
2023-09-24T05:08:17.108Z,81
2023-09-24T05:09:22.063Z,81
2023-09-24T05:10:26.977Z,81
2023-09-24T05:11:31.919Z,81
2023-09-24T05:12:38.018Z,81
2023-09-24T05:13:43.064Z,81
2023-09-24T05:14:48.095Z,81
2023-09-24T05:15:53.159Z,81
2023-09-24T05:17:00.696Z,81
2023-09-24T05:18:05.626Z,81
2023-09-24T05:19:10.670Z,81
2023-09-24T05:20:15.765Z,81
2023-09-24T05:21:20.744Z,81
2023-09-24T05:22:25.735Z,81
2023-09-24T05:23:30.938Z,81
2023-09-24T05:24:36.079Z,81
2023-09-24T05:25:41.127Z,81
2023-09-24T05:26:46.493Z,81
2023-09-24T05:27:51.436Z,81
2023-09-24T05:28:56.351Z,82
2023-09-24T05:30:01.492Z,81
2023-09-24T05:31:06.491Z,82
2023-09-24T05:32:11.468Z,82
2023-09-24T05:33:16.624Z,82
2023-09-24T05:34:21.485Z,81
2023-09-24T05:35:26.428Z,81
2023-09-24T05:36:31.662Z,81
2023-09-24T05:37:36.642Z,81
2023-09-24T05:38:41.849Z,81
2023-09-24T05:39:46.812Z,81
2023-09-24T05:40:51.705Z,81
2023-09-24T05:41:56.698Z,81
2023-09-24T05:43:01.704Z,81
2023-09-24T05:44:06.847Z,82
2023-09-24T05:45:11.882Z,81
2023-09-24T05:46:16.800Z,81
2023-09-24T05:47:21.877Z,81
2023-09-24T05:48:26.890Z,81
2023-09-24T05:49:31.767Z,81
2023-09-24T05:50:36.731Z,81
2023-09-24T05:51:41.637Z,81
2023-09-24T05:52:46.720Z,81
2023-09-24T05:53:51.720Z,81
2023-09-24T05:54:56.606Z,81
2023-09-24T05:56:01.630Z,81
2023-09-24T05:57:06.661Z,81
2023-09-24T05:58:11.726Z,81
2023-09-24T05:59:16.741Z,81
2023-09-24T06:00:21.753Z,81
2023-09-24T06:01:26.827Z,81
2023-09-24T06:02:31.832Z,81
2023-09-24T06:03:36.838Z,81
2023-09-24T06:04:41.663Z,81
2023-09-24T06:05:46.937Z,80
2023-09-24T06:06:51.899Z,81
2023-09-24T06:07:56.950Z,81
2023-09-24T06:09:02.241Z,81
2023-09-24T06:10:10.244Z,81
2023-09-24T06:11:15.268Z,81
2023-09-24T06:12:20.409Z,81
2023-09-24T06:13:25.770Z,81
2023-09-24T06:14:30.721Z,81
2023-09-24T06:15:35.856Z,81
2023-09-24T06:16:40.919Z,81
2023-09-24T06:17:47.065Z,81
2023-09-24T06:18:52.192Z,81
2023-09-24T06:19:57.053Z,81
2023-09-24T06:21:02.060Z,81
2023-09-24T06:22:07.048Z,81
2023-09-24T06:23:12.142Z,81
2023-09-24T06:24:18.208Z,81
2023-09-24T06:25:23.087Z,81
2023-09-24T06:26:28.068Z,81
2023-09-24T06:27:36.044Z,81
2023-09-24T06:28:41.368Z,81
2023-09-24T06:29:46.054Z,81
2023-09-24T06:30:50.967Z,81
2023-09-24T06:32:03.797Z,80
2023-09-24T06:33:09.034Z,80
2023-09-24T06:34:14.194Z,80
2023-09-24T06:35:19.163Z,80
2023-09-24T06:36:24.280Z,80
2023-09-24T06:37:29.306Z,80
2023-09-24T06:38:35.568Z,80
2023-09-24T06:39:39.598Z,80
2023-09-24T06:40:44.532Z,81
2023-09-24T06:41:49.456Z,81
2023-09-24T06:42:54.764Z,81
2023-09-24T06:43:59.657Z,80
2023-09-24T06:45:04.950Z,81
2023-09-24T06:46:11.358Z,81
2023-09-24T06:47:16.687Z,81
2023-09-24T06:48:22.455Z,81
2023-09-24T06:49:26.624Z,80
2023-09-24T06:50:31.928Z,81
2023-09-24T06:51:36.748Z,80
2023-09-24T06:52:41.757Z,80
2023-09-24T06:53:46.983Z,80
2023-09-24T06:54:51.787Z,80
2023-09-24T06:55:56.890Z,81
2023-09-24T06:57:02.052Z,80
2023-09-24T06:58:06.984Z,80
2023-09-24T06:59:12.052Z,80
2023-09-24T07:00:17.049Z,80
2023-09-24T07:01:22.484Z,80
2023-09-24T07:02:27.609Z,80
2023-09-24T07:03:32.723Z,80
2023-09-24T07:04:37.881Z,80
2023-09-24T07:05:43.445Z,80
2023-09-24T07:06:48.400Z,80
2023-09-24T07:07:53.226Z,80
2023-09-24T07:08:58.257Z,80
2023-09-24T07:10:05.979Z,80
2023-09-24T07:11:11.352Z,80
2023-09-24T07:12:24.382Z,80
2023-09-24T07:13:29.259Z,80
2023-09-24T07:14:34.195Z,80
2023-09-24T07:15:39.427Z,80
2023-09-24T07:16:46.419Z,81
2023-09-24T07:17:49.555Z,81
2023-09-24T07:18:54.429Z,81
2023-09-24T07:19:59.453Z,81
2023-09-24T07:21:04.613Z,81
2023-09-24T07:22:09.505Z,80
2023-09-24T07:23:14.519Z,81
2023-09-24T07:24:19.538Z,81
2023-09-24T07:25:24.448Z,81
2023-09-24T07:26:30.428Z,81
2023-09-24T07:27:35.524Z,81
2023-09-24T07:28:40.420Z,81
2023-09-24T07:29:46.469Z,80
2023-09-24T07:30:51.323Z,80
2023-09-24T07:31:56.289Z,80
2023-09-24T07:33:01.292Z,80
2023-09-24T07:34:07.456Z,80
2023-09-24T07:35:13.441Z,80
2023-09-24T07:36:31.001Z,80
2023-09-24T07:37:23.855Z,80
2023-09-24T07:38:28.728Z,80
2023-09-24T07:39:33.662Z,80
2023-09-24T07:40:38.701Z,80
2023-09-24T07:41:43.697Z,80
2023-09-24T07:42:49.039Z,80
2023-09-24T07:43:54.156Z,80
2023-09-24T07:44:59.232Z,81
2023-09-24T07:46:04.169Z,82
2023-09-24T07:47:09.073Z,81
2023-09-24T07:48:14.114Z,80
2023-09-24T07:49:18.987Z,81
2023-09-24T07:50:24.116Z,81
2023-09-24T07:51:29.110Z,80
2023-09-24T07:52:34.066Z,80
2023-09-24T07:53:39.082Z,80
2023-09-24T07:54:45.401Z,80
2023-09-24T07:55:48.837Z,80
2023-09-24T07:56:58.769Z,79
2023-09-24T07:58:03.800Z,79
2023-09-24T07:59:09.569Z,79
2023-09-24T08:00:14.941Z,79
2023-09-24T08:01:20.117Z,79
2023-09-24T08:02:25.153Z,79
2023-09-24T08:03:30.084Z,78
2023-09-24T08:04:34.980Z,78
2023-09-24T08:05:40.026Z,78
2023-09-24T08:06:45.016Z,78
2023-09-24T08:07:49.874Z,78
2023-09-24T08:09:00.308Z,78
2023-09-24T08:09:59.710Z,78
2023-09-24T08:11:04.643Z,78
2023-09-24T08:12:09.578Z,78
2023-09-24T08:13:14.447Z,78
2023-09-24T08:14:19.393Z,78
2023-09-24T08:15:24.608Z,78
2023-09-24T08:16:29.771Z,78
2023-09-24T08:17:34.649Z,78
2023-09-24T08:18:39.949Z,78
2023-09-24T08:19:44.862Z,78
2023-09-24T08:20:49.810Z,78
2023-09-24T08:21:54.823Z,78
2023-09-24T08:22:59.780Z,78
2023-09-24T08:24:04.805Z,77
2023-09-24T08:25:09.875Z,78
2023-09-24T08:26:14.752Z,78
2023-09-24T08:27:19.787Z,78
2023-09-24T08:28:24.877Z,78
2023-09-24T08:29:29.850Z,78
2023-09-24T08:30:34.755Z,77
2023-09-24T08:31:39.647Z,77
2023-09-24T08:32:44.703Z,77
2023-09-24T08:33:50.293Z,77
2023-09-24T08:34:55.069Z,77
2023-09-24T08:36:00.082Z,77
2023-09-24T08:37:05.440Z,76
2023-09-24T08:38:10.358Z,76
2023-09-24T08:39:15.257Z,77
2023-09-24T08:40:20.196Z,76
2023-09-24T08:41:25.272Z,76
2023-09-24T08:42:30.669Z,76
2023-09-24T08:43:35.576Z,76
2023-09-24T08:44:40.566Z,76
2023-09-24T08:45:45.557Z,76
2023-09-24T08:46:51.002Z,75
2023-09-24T08:47:56.484Z,75
2023-09-24T08:49:01.697Z,75
2023-09-24T08:50:07.140Z,75
2023-09-24T08:51:12.526Z,74
2023-09-24T08:52:17.478Z,74
2023-09-24T08:53:22.496Z,75
2023-09-24T08:54:27.525Z,75
2023-09-24T08:55:32.785Z,75
2023-09-24T08:56:38.031Z,75
2023-09-24T08:57:43.170Z,74
2023-09-24T08:58:48.459Z,74
2023-09-24T08:59:53.375Z,74
2023-09-24T09:00:58.344Z,74
2023-09-24T09:02:03.318Z,74
2023-09-24T09:03:08.281Z,74
2023-09-24T09:04:13.343Z,75
2023-09-24T09:05:18.262Z,75
2023-09-24T09:06:25.791Z,75
2023-09-24T09:07:38.585Z,75
2023-09-24T09:08:53.879Z,76
2023-09-24T09:09:58.488Z,76
2023-09-24T09:11:06.457Z,76
2023-09-24T09:12:11.453Z,76
2023-09-24T09:13:21.275Z,76
2023-09-24T09:14:26.313Z,75
2023-09-24T09:15:36.361Z,75
2023-09-24T09:16:44.099Z,75
2023-09-24T09:17:59.055Z,75
2023-09-24T09:19:06.878Z,75
2023-09-24T09:20:11.885Z,75
2023-09-24T09:21:17.005Z,74
2023-09-24T09:22:29.613Z,74
2023-09-24T09:23:37.493Z,74
2023-09-24T09:24:40.910Z,74
2023-09-24T09:25:46.034Z,74
2023-09-24T09:26:53.834Z,74
2023-09-24T09:27:58.797Z,74
2023-09-24T09:29:03.704Z,74
2023-09-24T09:30:08.834Z,74
2023-09-24T09:31:16.771Z,74
2023-09-24T09:32:22.145Z,74
2023-09-24T09:33:27.231Z,74
2023-09-24T09:34:32.233Z,74
2023-09-24T09:35:37.383Z,74
2023-09-24T09:36:42.260Z,74
2023-09-24T09:37:47.260Z,74
2023-09-24T09:38:52.416Z,73
2023-09-24T09:39:57.087Z,73
2023-09-24T09:41:01.999Z,74
2023-09-24T09:42:06.931Z,74
2023-09-24T09:43:12.515Z,74
2023-09-24T09:44:17.738Z,75
2023-09-24T09:45:22.695Z,74
2023-09-24T09:46:28.072Z,74
2023-09-24T09:47:33.231Z,74
2023-09-24T09:48:49.078Z,74
2023-09-24T09:49:58.903Z,74
2023-09-24T09:51:03.895Z,73
2023-09-24T09:52:08.922Z,73
2023-09-24T09:53:13.880Z,72
2023-09-24T09:54:19.493Z,73
2023-09-24T09:55:24.347Z,73
2023-09-24T09:56:29.350Z,73
2023-09-24T09:57:34.679Z,73
2023-09-24T09:58:39.882Z,72
2023-09-24T09:59:44.788Z,73
2023-09-24T10:00:49.746Z,73
2023-09-24T10:01:54.898Z,73
2023-09-24T10:02:59.831Z,73
2023-09-24T10:04:04.707Z,73
2023-09-24T10:05:09.811Z,72
2023-09-24T10:06:14.775Z,72
2023-09-24T10:07:19.741Z,72
2023-09-24T10:08:24.819Z,71
2023-09-24T10:09:39.664Z,71
2023-09-24T10:10:44.723Z,72
2023-09-24T10:11:49.690Z,72
2023-09-24T10:12:54.608Z,71
2023-09-24T10:13:59.709Z,71
2023-09-24T10:15:04.651Z,72
2023-09-24T10:16:19.471Z,72
2023-09-24T10:17:29.577Z,72
2023-09-24T10:18:34.506Z,72
2023-09-24T10:19:39.436Z,72
2023-09-24T10:20:51.899Z,72
2023-09-24T10:22:02.606Z,71
2023-09-24T10:23:07.549Z,72
2023-09-24T10:24:22.320Z,71
2023-09-24T10:25:27.421Z,71
2023-09-24T10:26:35.161Z,71
2023-09-24T10:27:58.268Z,71
2023-09-24T10:29:02.696Z,71
2023-09-24T10:30:07.831Z,71
2023-09-24T10:31:12.846Z,71
2023-09-24T10:32:18.108Z,70
2023-09-24T10:33:23.044Z,70
2023-09-24T10:34:37.799Z,70
2023-09-24T10:35:52.616Z,70
2023-09-24T10:37:08.578Z,70
2023-09-24T10:38:14.956Z,70
2023-09-24T10:39:18.639Z,71
2023-09-24T10:40:23.900Z,71
2023-09-24T10:41:28.987Z,70
2023-09-24T10:42:33.998Z,71
2023-09-24T10:43:39.152Z,72
2023-09-24T10:44:44.995Z,71
2023-09-24T10:45:50.223Z,71
2023-09-24T10:46:57.300Z,70
2023-09-24T10:48:00.933Z,71
2023-09-24T10:49:06.145Z,71
2023-09-24T10:50:09.225Z,71
2023-09-24T10:51:22.247Z,70
2023-09-24T10:52:27.738Z,70
2023-09-24T10:53:32.757Z,70
2023-09-24T10:54:37.821Z,70
2023-09-24T10:55:44.071Z,70
2023-09-24T10:56:48.020Z,70
2023-09-24T10:57:52.961Z,70
2023-09-24T10:58:57.938Z,70
2023-09-24T11:00:02.911Z,70
2023-09-24T11:01:08.536Z,70
2023-09-24T11:02:13.499Z,70
2023-09-24T11:03:21.539Z,70
2023-09-24T11:04:26.811Z,70
2023-09-24T11:05:31.484Z,69
2023-09-24T11:06:44.112Z,69
2023-09-24T11:07:49.158Z,69
2023-09-24T11:08:55.246Z,69
2023-09-24T11:10:00.192Z,69
2023-09-24T11:11:05.236Z,70
2023-09-24T11:12:10.312Z,69
2023-09-24T11:13:14.992Z,69
2023-09-24T11:14:20.000Z,70
2023-09-24T11:15:28.718Z,70
2023-09-24T11:16:36.427Z,69
2023-09-24T11:17:41.722Z,69
2023-09-24T11:18:46.583Z,69
2023-09-24T11:19:51.430Z,70
2023-09-24T11:20:56.549Z,70
2023-09-24T11:22:03.006Z,70
2023-09-24T11:23:17.729Z,70
2023-09-24T11:24:22.701Z,70
2023-09-24T11:25:27.785Z,70
2023-09-24T11:26:32.752Z,70
2023-09-24T11:27:37.635Z,70
2023-09-24T11:28:52.451Z,70
2023-09-24T11:29:57.440Z,70
2023-09-24T11:31:02.561Z,70
2023-09-24T11:32:07.470Z,70
2023-09-24T11:33:13.455Z,70
2023-09-24T11:34:18.294Z,70
2023-09-24T11:35:26.319Z,70
2023-09-24T11:36:31.366Z,69
2023-09-24T11:37:36.318Z,70
2023-09-24T11:38:49.211Z,69
2023-09-24T11:39:53.802Z,69
2023-09-24T11:40:58.838Z,69
2023-09-24T11:42:14.707Z,69
2023-09-24T11:43:22.948Z,69
2023-09-24T11:44:28.288Z,68
2023-09-24T11:45:33.378Z,68
2023-09-24T11:46:43.295Z,69
2023-09-24T11:47:48.867Z,68
2023-09-24T11:48:53.997Z,69
2023-09-24T11:49:58.479Z,69
2023-09-24T11:51:03.583Z,69
2023-09-24T11:52:08.684Z,69
2023-09-24T11:53:16.773Z,69
2023-09-24T11:54:22.981Z,69
2023-09-24T11:55:27.942Z,69
2023-09-24T11:56:33.132Z,68
2023-09-24T11:57:38.158Z,68
2023-09-24T11:58:43.410Z,68
2023-09-24T11:59:48.566Z,68
2023-09-24T12:00:53.622Z,68
2023-09-24T12:01:58.613Z,68
2023-09-24T12:03:03.850Z,68
2023-09-24T12:04:08.819Z,69
2023-09-24T12:05:27.062Z,68
2023-09-24T12:06:18.493Z,68
2023-09-24T12:07:23.236Z,68
2023-09-24T12:08:27.933Z,68
2023-09-24T12:09:32.901Z,68
2023-09-24T12:10:37.552Z,68
2023-09-24T12:11:42.353Z,68
2023-09-24T12:12:47.350Z,68
2023-09-24T12:13:52.109Z,68
2023-09-24T12:14:56.923Z,68
2023-09-24T12:16:01.858Z,68
2023-09-24T12:17:06.673Z,68
2023-09-24T12:18:11.547Z,68
2023-09-24T12:19:16.702Z,67
2023-09-24T12:20:21.889Z,68
2023-09-24T12:21:29.733Z,68
2023-09-24T12:22:34.907Z,68
2023-09-24T12:23:40.092Z,68
2023-09-24T12:24:45.171Z,68
2023-09-24T12:25:50.071Z,67
2023-09-24T12:26:55.194Z,67
2023-09-24T12:28:00.090Z,67
2023-09-24T12:29:05.154Z,68
2023-09-24T12:30:10.271Z,68
2023-09-24T12:31:15.407Z,68
2023-09-24T12:32:20.282Z,68
2023-09-24T12:33:25.665Z,67
2023-09-24T12:34:30.379Z,67
2023-09-24T12:35:35.491Z,67
2023-09-24T12:36:40.588Z,68
2023-09-24T12:37:45.604Z,67
2023-09-24T12:38:50.699Z,67
2023-09-24T12:39:56.419Z,67
2023-09-24T12:41:02.571Z,67
2023-09-24T12:42:07.564Z,66
2023-09-24T12:43:12.617Z,66
2023-09-24T12:44:17.579Z,66
2023-09-24T12:45:22.647Z,66
2023-09-24T12:46:27.581Z,67
2023-09-24T12:47:32.633Z,67
2023-09-24T12:48:37.614Z,67
2023-09-24T12:49:42.538Z,67
2023-09-24T12:50:47.531Z,67
2023-09-24T12:51:52.443Z,67
2023-09-24T12:52:57.620Z,67
2023-09-24T12:54:02.505Z,67
2023-09-24T12:55:08.600Z,67
2023-09-24T12:56:13.583Z,67
2023-09-24T12:57:18.578Z,66
2023-09-24T12:58:24.042Z,66
2023-09-24T12:59:28.453Z,66
2023-09-24T13:00:34.329Z,66
2023-09-24T13:01:39.374Z,66
2023-09-24T13:02:44.372Z,66
2023-09-24T13:03:49.533Z,66
2023-09-24T13:04:54.282Z,67
2023-09-24T13:05:59.368Z,67
2023-09-24T13:07:04.603Z,67
2023-09-24T13:08:09.502Z,66
2023-09-24T13:09:14.482Z,66
2023-09-24T13:10:22.459Z,66
2023-09-24T13:11:28.262Z,66
2023-09-24T13:12:32.612Z,67
2023-09-24T13:13:37.634Z,66
2023-09-24T13:14:42.820Z,66
2023-09-24T13:15:47.836Z,67
2023-09-24T13:16:52.702Z,66
2023-09-24T13:17:57.846Z,67
2023-09-24T13:19:03.660Z,66
2023-09-24T13:20:07.792Z,67
2023-09-24T13:21:12.800Z,67
2023-09-24T13:22:17.695Z,67
2023-09-24T13:23:22.864Z,66
2023-09-24T13:24:28.003Z,66
2023-09-24T13:25:32.949Z,66
2023-09-24T13:26:38.051Z,65
2023-09-24T13:27:43.029Z,66
2023-09-24T13:28:48.110Z,66
2023-09-24T13:29:53.226Z,66
2023-09-24T13:30:58.098Z,66
2023-09-24T13:32:03.663Z,65
2023-09-24T13:33:08.069Z,65
2023-09-24T13:34:13.664Z,65
2023-09-24T13:35:18.564Z,65
2023-09-24T13:36:23.596Z,65
2023-09-24T13:37:28.724Z,65
2023-09-24T13:38:36.542Z,65
2023-09-24T13:39:41.521Z,66
2023-09-24T13:40:46.537Z,65
2023-09-24T13:41:51.541Z,65
2023-09-24T13:42:56.513Z,65
2023-09-24T13:44:01.418Z,64
2023-09-24T13:45:06.652Z,65
2023-09-24T13:46:12.047Z,65
2023-09-24T13:47:16.884Z,64
2023-09-24T13:48:22.102Z,64
2023-09-24T13:49:26.984Z,65
2023-09-24T13:50:32.049Z,65
2023-09-24T13:51:37.352Z,65
2023-09-24T13:52:42.425Z,64
2023-09-24T13:53:47.662Z,64
2023-09-24T13:54:52.580Z,64
2023-09-24T13:55:57.676Z,64
2023-09-24T13:57:02.744Z,64
2023-09-24T13:58:07.624Z,63
2023-09-24T13:59:12.577Z,63
2023-09-24T14:00:17.562Z,63
2023-09-24T14:01:22.617Z,64
2023-09-24T14:02:27.711Z,64
2023-09-24T14:03:32.819Z,64
2023-09-24T14:04:37.623Z,64
2023-09-24T14:05:43.754Z,64
2023-09-24T14:06:48.765Z,64
2023-09-24T14:07:53.604Z,64
2023-09-24T14:08:58.629Z,64
2023-09-24T14:10:08.446Z,64
2023-09-24T14:11:18.329Z,64
2023-09-24T14:12:28.360Z,64
2023-09-24T14:13:33.261Z,64
2023-09-24T14:14:38.142Z,64
2023-09-24T14:15:43.215Z,64
2023-09-24T14:16:49.578Z,64
2023-09-24T14:18:07.541Z,64
2023-09-24T14:18:59.701Z,65
2023-09-24T14:20:04.584Z,64
2023-09-24T14:21:11.046Z,65
2023-09-24T14:22:16.099Z,65
2023-09-24T14:23:21.153Z,65
2023-09-24T14:24:26.245Z,65
2023-09-24T14:25:31.210Z,65
2023-09-24T14:26:36.444Z,65
2023-09-24T14:27:41.483Z,66
2023-09-24T14:28:46.705Z,65
2023-09-24T14:29:51.581Z,65
2023-09-24T14:30:56.721Z,65
2023-09-24T14:32:01.698Z,65
2023-09-24T14:33:07.019Z,65
2023-09-24T14:34:11.840Z,65
2023-09-24T14:35:16.904Z,65
2023-09-24T14:36:21.976Z,65
2023-09-24T14:37:26.940Z,65
2023-09-24T14:38:31.871Z,65
2023-09-24T14:39:36.989Z,65
2023-09-24T14:40:41.889Z,65
2023-09-24T14:41:46.880Z,65
2023-09-24T14:42:51.871Z,66
2023-09-24T14:43:56.829Z,65
2023-09-24T14:45:03.028Z,65
2023-09-24T14:46:08.413Z,66
2023-09-24T14:47:13.365Z,66
2023-09-24T14:48:18.415Z,66
2023-09-24T14:49:23.455Z,66
2023-09-24T14:50:28.369Z,66
2023-09-24T14:51:33.344Z,67
2023-09-24T14:52:38.312Z,67
2023-09-24T14:53:43.350Z,67
2023-09-24T14:54:49.366Z,66
2023-09-24T14:55:54.689Z,66
2023-09-24T14:56:59.713Z,66
2023-09-24T14:58:04.653Z,66
2023-09-24T14:59:09.516Z,66
2023-09-24T15:00:14.590Z,66
2023-09-24T15:01:19.709Z,66
2023-09-24T15:02:24.671Z,67
2023-09-24T15:03:29.713Z,66
2023-09-24T15:04:35.055Z,67
2023-09-24T15:05:39.903Z,67
2023-09-24T15:06:46.951Z,66
2023-09-24T15:07:49.956Z,67
2023-09-24T15:08:54.990Z,67
2023-09-24T15:09:59.852Z,67
2023-09-24T15:11:07.638Z,67
2023-09-24T15:12:12.627Z,67
2023-09-24T15:13:18.616Z,67
2023-09-24T15:14:23.725Z,67
2023-09-24T15:15:28.654Z,67
2023-09-24T15:16:33.662Z,67
2023-09-24T15:17:38.528Z,66
2023-09-24T15:18:44.554Z,66
2023-09-24T15:19:49.685Z,66
2023-09-24T15:20:54.736Z,66
2023-09-24T15:21:59.720Z,66
2023-09-24T15:23:05.031Z,67
2023-09-24T15:24:10.471Z,67
2023-09-24T15:25:15.378Z,67
2023-09-24T15:26:20.497Z,67
2023-09-24T15:27:25.667Z,67
2023-09-24T15:28:30.677Z,67
2023-09-24T15:29:35.776Z,67
2023-09-24T15:30:41.063Z,67
2023-09-24T15:31:46.060Z,67
2023-09-24T15:32:51.404Z,67
2023-09-24T15:33:56.604Z,67
2023-09-24T15:35:01.622Z,67